• Join FlightAware (Why Join?)
  • Login
  • US Flag 
10:56AM EDT


 

Airport Tracker/Info


-or-


 

Live Flight TrackerFlight Track Log ✈ AMX536 ✈ 20-Aug-2013 ✈ MMMD / MID - MMMX / MEX

Flight Track Log - Related Links

Times and Time Zones

All times are in EDT time to prevent confusion due to time zone crossing. See the AMX536 flight status page for this flight to view local times or setup timezone preferences in your user account.

Time Position Orientation Groundspeed Altitude Reporting Facility
EDT Latitude Longitude Course Direction KTS MPH feet Rate Location/Type
09:38AM 20.9370 -89.6590 37° Northeast  Level FlightAware
09:38AM 20.9300 -89.6280 104° East 147 169 900 2,100 Climbing FlightAware
09:38AM 20.9270 -89.6170 106° East 154 177 1,400 1,320 Climbing FlightAware
09:39AM 20.9230 -89.6010 105° East 185 213 1,700 1,200 Climbing FlightAware
09:39AM 20.9180 -89.5800 104° East 209 241 2,200 2,400 Climbing FlightAware
09:39AM 20.9140 -89.5610 103° East 203 234 3,300 2,460 Climbing FlightAware
09:40AM 20.9090 -89.5410 105° East 216 249 4,000 1,560 Climbing FlightAware
09:40AM 20.9030 -89.5230 110° East 240 276 4,300 1,200 Climbing FlightAware
09:40AM 20.8990 -89.5180 131° Southeast 246 283 4,400 1,500 Climbing FlightAware
09:40AM 20.8940 -89.5110 127° Southeast 255 293 4,600 1,560 Climbing FlightAware
09:40AM 20.8850 -89.5050 148° Southeast 261 300 4,800 2,220 Climbing FlightAware
09:40AM 20.8760 -89.5020 163° South 265 305 5,200 2,700 Climbing FlightAware
09:41AM 20.8370 -89.5130 195° South 277 319 6,700 2,640 Climbing FlightAware
09:41AM 20.8330 -89.5170 223° Southwest 279 321 6,900 2,520 Climbing FlightAware
09:41AM 20.8250 -89.5290 235° Southwest 286 329 7,300 2,280 Climbing FlightAware
09:41AM 20.8220 -89.5400 254° West 293 337 7,600 2,100 Climbing FlightAware
09:41AM 20.8220 -89.5490 270° West 297 342 7,800 2,280 Climbing FlightAware
09:42AM 20.8310 -89.5760 290° West 305 351 8,600 2,460 Climbing FlightAware
09:42AM 20.8340 -89.5810 303° West 306 352 8,800 3,360 Climbing FlightAware
09:42AM 20.8480 -89.5920 324° Northwest 298 343 9,500 2,340 Climbing FlightAware
09:43AM 20.8880 -89.6200 327° Northwest 323 372 10,600 1,800 Climbing FlightAware
09:43AM 20.9310 -89.6490 328° Northwest 347 399 11,500 2,100 Climbing FlightAware
09:44AM 20.9910 -89.6650 346° North 353 406 13,100 2,460 Climbing FlightAware
09:44AM 21.0500 -89.6750 351° North 365 420 14,600 2,460 Climbing FlightAware
09:45AM 21.1120 -89.6860 351° North 376 433 16,100 2,580 Climbing FlightAware
09:46AM 21.1730 -89.6960 351° North 382 440 17,700 2,400 Climbing FlightAware
09:46AM 21.2210 -89.7130 342° North 395 455 18,700 2,100 Climbing FlightAware
09:46AM 21.2480 -89.7410 316° Northwest 404 465 19,400 1,860 Climbing FlightAware
09:47AM 21.2570 -89.7630 294° West 410 472 19,700 2,040 Climbing FlightAware
09:47AM 21.2620 -89.7920 280° West 415 478 20,300 2,220 Climbing FlightAware
09:47AM 21.2540 -89.8600 263° West 420 483 21,500 2,280 Climbing FlightAware
09:48AM 21.2440 -89.9310 261° West 425 489 22,900 2,160 Climbing FlightAware
09:49AM 21.2340 -90.0110 262° West 434 499 24,100 1,920 Climbing FlightAware
09:49AM 21.2230 -90.0890 261° West 441 507 25,300 1,800 Climbing FlightAware
09:50AM 21.2130 -90.1630 262° West 450 518 26,300 1,620 Climbing FlightAware
09:50AM 21.2030 -90.2370 262° West 457 526 27,200 1,620 Climbing FlightAware
09:51AM 21.1920 -90.3190 262° West 465 535 28,200 1,560 Climbing FlightAware
09:51AM 21.1810 -90.4000 262° West 469 540 29,100 1,500 Climbing FlightAware
09:52AM 21.1710 -90.4740 262° West 476 548 29,900 1,500 Climbing FlightAware
09:53AM 21.1620 -90.5590 264° West 481 554 30,800 1,680 Climbing FlightAware
09:53AM 21.1550 -90.6440 265° West 476 548 32,000 1,920 Climbing FlightAware
09:54AM 21.1480 -90.7320 265° West 470 541 33,200 1,980 Climbing FlightAware
09:54AM 21.1420 -90.8060 265° West 464 534 34,300 1,560 Climbing FlightAware
09:55AM 21.1350 -90.8890 265° West 462 532 35,000 600 Climbing FlightAware
09:56AM 21.1290 -90.9620 265° West 461 531 35,000  Level FlightAware
09:56AM 21.1220 -91.0420 265° West 460 529 35,000  Level FlightAware
09:57AM 21.1160 -91.1150 265° West 459 528 35,000  Level FlightAware
09:57AM 21.1120 -91.1580 264° West 458 527 35,000  Level FlightAware
09:58AM 21.1050 -91.2360 265° West 458 527 35,000 600 Level FlightAware
09:59AM 21.0980 -91.3270 265° West 460 529 35,800 1,260 Climbing FlightAware
09:59AM 21.0910 -91.4100 265° West 455 524 36,700 1,440 Climbing FlightAware
10:00AM 21.0830 -91.5010 265° West 451 519 37,700 1,380 Climbing FlightAware
10:00AM 21.0770 -91.5670 264° West 448 516 38,400 1,200 Climbing FlightAware
10:01AM 21.0720 -91.6330 265° West 448 516 39,000 1,020 Climbing FlightAware
10:02AM 21.0610 -91.7510 264° West 445 512 39,900 660 Climbing FlightAware
10:02AM 21.0550 -91.8230 265° West 447 514 40,000 60 Climbing FlightAware
10:03AM 21.0460 -91.9220 264° West 446 513 40,000  Level FlightAware
10:04AM 21.0400 -91.9920 265° West 444 511 40,000  Level FlightAware
10:04AM 21.0310 -92.0960 265° West 444 511 40,000  Level FlightAware
10:05AM 21.0240 -92.1750 265° West 443 510 40,000  Level FlightAware
10:06AM 21.0160 -92.2610 264° West 441 507 40,000  Level FlightAware
10:06AM 21.0100 -92.3310 265° West 439 505 40,000  Level FlightAware
10:07AM 21.0020 -92.4120 264° West 437 503 40,000  Level FlightAware
10:07AM 20.9940 -92.5030 265° West 436 502 40,000  Level FlightAware
10:08AM 20.9890 -92.5580 264° West 435 501 40,000  Level FlightAware
10:09AM 20.9800 -92.6520 264° West 435 501 40,000  Level FlightAware
10:09AM 20.9730 -92.7290 264° West 434 499 40,000  Level FlightAware
10:10AM 20.9630 -92.8340 264° West 438 504 40,000  Level FlightAware
10:11AM 20.9550 -92.9160 264° West 439 505 40,000  Level FlightAware
10:12AM 20.9470 -93.0040 264° West 439 505 40,000  Level FlightAware
10:12AM 20.9350 -93.1220 264° West 439 505 40,000  Level FlightAware
10:13AM 20.9270 -93.2070 264° West 440 506 40,000  Level FlightAware
10:14AM 20.9200 -93.2840 264° West 440 506 40,000  Level FlightAware
10:15AM 20.9100 -93.3860 264° West 440 506 40,000  Level FlightAware
10:15AM 20.9030 -93.4540 264° West 440 506 40,000  Level FlightAware
10:16AM 20.8970 -93.5220 265° West 440 506 40,000  Level FlightAware
10:16AM 20.8900 -93.5880 264° West 440 506 40,000  Level FlightAware
10:17AM 20.8830 -93.6570 264° West 440 506 40,000  Level FlightAware
10:18AM 20.8770 -93.7250 265° West 440 506 40,000  Level FlightAware
10:18AM 20.8700 -93.7910 264° West 440 506 40,000  Level FlightAware
10:19AM 20.8640 -93.8570 264° West 440 506 40,000  Level FlightAware
10:19AM 20.8570 -93.9240 264° West 440 506 40,000  Level FlightAware
10:20AM 20.8510 -93.9860 264° West 440 506 40,000  Level FlightAware
10:21AM 20.8440 -94.0530 264° West 440 506 40,000  Level FlightAware
10:21AM 20.8380 -94.1190 264° West 440 506 40,000  Level FlightAware
10:22AM 20.8310 -94.1850 264° West 440 506 40,000  Level FlightAware
10:22AM 20.8250 -94.2510 264° West 440 506 40,000  Level FlightAware
10:23AM 20.8190 -94.3140 264° West 440 506 40,000  Level FlightAware
10:24AM 20.8120 -94.3860 264° West 440 506 40,000  Level FlightAware
10:26AM 20.7566 -94.5849 253° West  Level Estimated
10:27AM 20.7271 -94.6905 253° West  Level Estimated
10:28AM 20.6976 -94.7960 253° West  Level Estimated
10:29AM 20.6679 -94.9015 253° West  Level Estimated
10:30AM 20.6383 -95.0069 253° West  Level Estimated
10:31AM 20.6085 -95.1123 253° West  Level Estimated
10:32AM 20.5787 -95.2177 253° West  Level Estimated
10:33AM 20.5488 -95.3230 253° West  Level Estimated
10:34AM 20.5189 -95.4283 253° West  Level Estimated
10:35AM 20.4888 -95.5335 253° West  Level Estimated
10:36AM 20.4588 -95.6387 253° West  Level Estimated
10:37AM 20.4286 -95.7438 253° West  Level Estimated
10:38AM 20.3985 -95.8489 253° West  Level Estimated
10:39AM 20.3682 -95.9540 253° West  Level Estimated
10:40AM 20.3379 -96.0590 253° West  Level Estimated
10:41AM 20.3075 -96.1640 253° West  Level Estimated
10:42AM 20.2770 -96.2690 253° West  Level Estimated
10:43AM 20.2465 -96.3739 253° West  Level Estimated
10:44AM 20.2160 -96.4787 253° West  Level Estimated
10:45AM 20.1853 -96.5835 253° West  Level Estimated
10:46AM 20.1546 -96.6883 253° West  Level Estimated
10:47AM 20.1238 -96.7931 253° West  Level Estimated
10:48AM 20.0930 -96.8978 253° West  Level Estimated
10:49AM 20.0621 -97.0024 253° West  Level Estimated
10:50AM 20.0312 -97.1070 253° West  Level Estimated
10:51AM 20.0002 -97.2116 253° West  Level Estimated
10:52AM 19.9691 -97.3161 252° West  Level Estimated
10:53AM 19.9380 -97.4206 252° West  Level Estimated
10:54AM 19.9068 -97.5251 252° West  Level Estimated
10:55AM 19.8756 -97.6295 252° West  Level Estimated
10:56AM 19.8442 -97.7338 252° West  Level Estimated
10:57AM 19.8129 -97.8382 252° West  Level Estimated
10:58AM 19.7815 -97.9424 252° West  Level Estimated
10:59AM 19.7500 -98.0467 252° West  Level Estimated
11:00AM 19.7184 -98.1509 252° West  Level Estimated
11:01AM 19.6868 -98.2550 252° West  Level Estimated
11:02AM 19.6551 -98.3592 252° West  Level Estimated
11:03AM 19.6234 -98.4632 252° West  Level Estimated
11:04AM 19.5916 -98.5673 252° West  Level Estimated
11:05AM 19.5598 -98.6713 252° West  Level Estimated
11:06AM 19.5278 -98.7752 252° West  Level Estimated
11:07AM 19.4959 -98.8791 252° West  Level Estimated
11:08AM 19.4638 -98.9830 252° West  Level Estimated
11:09AM 19.4363 -99.0721 252° West  Level Estimated
11:10AM 19.4363 -99.0721 43° Northeast  Level Estimated
11:11AM 19.4363 -99.0721 43° Northeast  Level Estimated
11:12AM 19.4363 -99.0721 43° Northeast  Level Estimated
11:13AM 19.4363 -99.0721 43° Northeast  Level Estimated
11:14AM 19.4363 -99.0721 43° Northeast  Level Estimated
11:15AM 19.4363 -99.0721 43° Northeast  Level Estimated
11:16AM 19.4363 -99.0721 43° Northeast  Level Estimated
11:17AM 19.4363 -99.0721 43° Northeast  Level Estimated
11:18AM 19.4363 -99.0721 43° Northeast  Level Estimated
11:19AM 19.4363 -99.0721 43° Northeast  Level Estimated
11:20AM 19.4363 -99.0721 43° Northeast  Level Estimated
11:21AM 19.4363 -99.0721 43° Northeast  Level Estimated